首页
METAR-TAF:

METAR-TAF

机场 :

普羅維登西亞萊斯國際機場

Providenciales, 特克斯和凯科斯群岛

纬度: 21-46-25N, 经度: 072-15-57W, 海拔: 5米

当前天气观测

该预报发布于18分钟前的13:00 UTC
风速10节,风向东转东南
温度 30°C
湿度 70%
气压 1020 hPa
能见度10公里或以上
散云层高于2000英尺

METAR: MBPV 171300Z 120010KT 9999 SCT020 30/24 Q1020

时间: 09:18 (13:18 UTC)

预报

该预报发布于15小时和48分钟前的21:30 UTC
预报有效从17日的 00点(UTC)到 17日的 24点(UTC)
风速15节,风向东转东南
能见度10公里或以上
散云层高于2000英尺

TAF: MBPV 162130Z 1700/1724 12015KT 9999 SCT020

超过4000个机场的气象观测和天气预报(METAR&TAF报告)。

可查询的气象台以黄色和红色小点在地图上表示。

将鼠标移到小点上方,可查看气象台名称。

然后点击查看天气观测和预报。

如需切换地图:点击带黑十字的绿色按钮放大地图;点击带横线的绿色按钮缩小地图;或者点击绿色箭头查看邻近地区的地图。


METAR-TAF: